Time;durP1;ratioP1;P1;durP2;ratioP2;P2;SDS_P1;SDS_P2;PMS_P1;PMS_P2;Temp;Humidity;BMP_temperature;BMP_pressure;BME280_temperature;BME280_humidity;BME280_pressure;Samples;Min_cycle;Max_cycle;Signal;HPM_P1;HPM_P2
2022/01/07 00:02:01;;;;;;;6.95;3.10;;;8.70;78.30;;;;;;5033091;28;20048;-70
2022/01/07 00:04:27;;;;;;;8.63;2.30;;;8.80;78.70;;;;;;5032912;28;20474;-63
2022/01/07 00:06:53;;;;;;;5.25;2.20;;;8.70;78.80;;;;;;5032707;28;20538;-67
2022/01/07 00:09:19;;;;;;;6.22;2.17;;;8.70;78.90;;;;;;5033172;28;20029;-63
2022/01/07 00:11:45;;;;;;;4.70;2.00;;;8.70;78.60;;;;;;5033048;28;20536;-64
2022/01/07 00:14:10;;;;;;;4.90;2.13;;;8.70;78.80;;;;;;5032820;28;20112;-62
2022/01/07 00:16:36;;;;;;;7.72;2.67;;;8.80;78.50;;;;;;5032653;28;20025;-62
2022/01/07 00:19:03;;;;;;;7.97;2.08;;;8.70;78.10;;;;;;5032604;28;20033;-63
2022/01/07 00:21:29;;;;;;;4.35;2.10;;;8.70;78.80;;;;;;5032753;28;20018;-62
2022/01/07 00:23:55;;;;;;;5.38;2.08;;;8.70;78.50;;;;;;5032667;28;20030;-63
2022/01/07 00:26:20;;;;;;;7.20;2.38;;;8.70;78.60;;;;;;5032808;28;20053;-63
2022/01/07 00:28:46;;;;;;;4.65;2.05;;;8.60;78.80;;;;;;5032640;28;20049;-61
2022/01/07 00:31:12;;;;;;;4.38;2.28;;;8.70;79.00;;;;;;5032564;28;20393;-63
2022/01/07 00:33:38;;;;;;;4.13;2.17;;;8.70;78.80;;;;;;5032582;28;20100;-62
2022/01/07 00:36:04;;;;;;;3.78;1.75;;;8.70;78.50;;;;;;5032634;28;20033;-62
2022/01/07 00:38:30;;;;;;;5.93;2.30;;;8.80;78.80;;;;;;5032423;28;20029;-63
2022/01/07 00:40:56;;;;;;;4.68;1.92;;;8.70;78.40;;;;;;5032774;28;20125;-62
2022/01/07 00:43:22;;;;;;;7.43;2.40;;;8.70;78.60;;;;;;5032515;28;20510;-62
2022/01/07 00:45:48;;;;;;;5.05;2.10;;;8.60;78.30;;;;;;5032657;28;20021;-62
2022/01/07 00:48:14;;;;;;;5.55;2.00;;;8.60;78.70;;;;;;5032593;28;20051;-61
2022/01/07 00:50:41;;;;;;;5.28;1.85;;;8.70;78.90;;;;;;5032884;28;20137;-64
2022/01/07 00:53:07;;;;;;;5.60;2.00;;;8.70;78.60;;;;;;5036538;28;20029;-62
2022/01/07 00:55:32;;;;;;;4.28;2.00;;;8.70;78.90;;;;;;5036455;28;20025;-61
2022/01/07 00:57:58;;;;;;;5.20;2.05;;;8.60;78.50;;;;;;5036428;28;20033;-63
2022/01/07 01:00:26;;;;;;;6.22;2.50;;;8.60;78.70;;;;;;5036402;28;20025;-64
2022/01/07 01:02:52;;;;;;;6.03;1.98;;;8.60;78.60;;;;;;5036050;28;20556;-62
2022/01/07 01:05:19;;;;;;;4.72;1.90;;;8.50;78.60;;;;;;5036210;28;20037;-62
2022/01/07 01:07:45;;;;;;;5.35;1.80;;;8.50;78.70;;;;;;5036079;28;20129;-64
2022/01/07 01:10:13;;;;;;;6.88;1.90;;;8.50;78.90;;;;;;5036294;28;20371;-64
2022/01/07 01:12:41;;;;;;;5.28;1.83;;;8.40;79.10;;;;;;5036278;28;20029;-61
2022/01/07 01:15:09;;;;;;;5.88;2.22;;;8.40;79.40;;;;;;5036047;28;20439;-62
2022/01/07 01:17:35;;;;;;;5.90;2.05;;;8.50;79.10;;;;;;5035956;28;20032;-63
2022/01/07 01:20:06;;;;;;;5.25;1.90;;;8.50;79.30;;;;;;5036181;28;20018;-61
2022/01/07 01:22:32;;;;;;;6.32;1.55;;;8.50;78.90;;;;;;5036203;28;20113;-63
2022/01/07 01:24:58;;;;;;;5.50;1.80;;;8.60;79.20;;;;;;5036123;28;20072;-62
2022/01/07 01:27:23;;;;;;;4.15;1.60;;;8.50;79.20;;;;;;5036044;28;20100;-62
2022/01/07 01:29:49;;;;;;;5.40;2.10;;;8.60;79.40;;;;;;5035847;28;20107;-68
2022/01/07 01:32:16;;;;;;;3.25;1.67;;;8.60;79.20;;;;;;5035855;28;20052;-64
2022/01/07 01:34:42;;;;;;;4.57;1.95;;;8.50;79.40;;;;;;5036116;28;20449;-62
2022/01/07 01:37:08;;;;;;;5.38;1.80;;;8.40;79.80;;;;;;5036198;28;20105;-67
2022/01/07 01:39:34;;;;;;;6.88;2.00;;;8.40;79.50;;;;;;5035931;28;20060;-63
2022/01/07 01:42:01;;;;;;;4.82;2.08;;;8.40;79.80;;;;;;5036196;28;20421;-63
2022/01/07 01:44:26;;;;;;;6.13;1.95;;;8.50;79.80;;;;;;5035557;28;20041;-62
2022/01/07 01:46:52;;;;;;;5.60;1.63;;;8.50;79.70;;;;;;5036083;28;20108;-64
2022/01/07 01:49:18;;;;;;;4.45;1.83;;;8.60;79.70;;;;;;5035824;28;20029;-64
2022/01/07 01:51:44;;;;;;;5.05;1.83;;;8.60;79.30;;;;;;5035980;28;20029;-61
2022/01/07 01:54:10;;;;;;;3.65;1.48;;;8.70;79.50;;;;;;5035641;28;20082;-64
2022/01/07 01:56:36;;;;;;;3.85;1.60;;;8.70;79.40;;;;;;5035454;28;20156;-65
2022/01/07 01:59:03;;;;;;;5.10;1.67;;;8.60;79.00;;;;;;5035377;28;20096;-62
2022/01/07 02:01:28;;;;;;;5.07;1.90;;;8.70;79.20;;;;;;5035391;28;20128;-62
2022/01/07 02:03:54;;;;;;;4.22;1.92;;;8.70;79.10;;;;;;5034245;28;20562;-62
2022/01/07 02:06:20;;;;;;;5.88;1.75;;;8.70;79.10;;;;;;5035239;28;20033;-63
2022/01/07 02:08:47;;;;;;;5.05;2.00;;;8.80;79.10;;;;;;5033705;28;20075;-67
2022/01/07 02:11:12;;;;;;;5.95;2.00;;;8.80;78.90;;;;;;5035128;28;20029;-64
2022/01/07 02:13:38;;;;;;;4.53;1.77;;;8.90;78.80;;;;;;5035104;28;20038;-62
2022/01/07 02:16:04;;;;;;;6.82;1.98;;;8.90;78.70;;;;;;5035196;28;20026;-66
2022/01/07 02:18:30;;;;;;;4.00;1.60;;;8.90;78.60;;;;;;5035102;28;20136;-68
2022/01/07 02:20:56;;;;;;;6.22;1.98;;;8.90;78.80;;;;;;5035010;28;20104;-64
2022/01/07 02:23:21;;;;;;;6.30;1.73;;;8.90;78.60;;;;;;5034896;28;20464;-63
2022/01/07 02:25:49;;;;;;;3.63;1.70;;;8.90;78.90;;;;;;5034819;28;20033;-63
2022/01/07 02:28:14;;;;;;;2.90;1.60;;;8.90;78.80;;;;;;5034301;28;20021;-67
2022/01/07 02:30:41;;;;;;;4.90;2.05;;;8.80;78.60;;;;;;5034390;28;20380;-63
2022/01/07 02:33:06;;;;;;;5.10;2.03;;;8.80;79.00;;;;;;5034564;28;20494;-63
2022/01/07 02:35:34;;;;;;;3.97;1.70;;;8.80;79.00;;;;;;5034469;28;20061;-62
2022/01/07 02:38:00;;;;;;;5.85;1.67;;;8.80;79.20;;;;;;5034452;28;20029;-62
2022/01/07 02:40:26;;;;;;;4.10;1.83;;;8.70;79.00;;;;;;5034147;28;20308;-62
2022/01/07 02:42:52;;;;;;;4.43;1.70;;;8.70;79.10;;;;;;5034136;28;20482;-62
2022/01/07 02:45:19;;;;;;;4.72;1.90;;;8.60;79.50;;;;;;5034458;28;20018;-64
2022/01/07 02:47:50;;;;;;;6.40;1.85;;;8.70;79.40;;;;;;5034506;28;20585;-63
2022/01/07 02:50:25;;;;;;;6.38;2.17;;;8.70;79.50;;;;;;5034518;28;20029;-64
2022/01/07 02:52:51;;;;;;;2.85;1.67;;;8.70;79.30;;;;;;5034407;28;20051;-63
2022/01/07 02:55:19;;;;;;;5.45;2.22;;;8.60;79.60;;;;;;5034346;28;20057;-70
2022/01/07 02:57:44;;;;;;;6.10;2.15;;;8.60;79.50;;;;;;5034255;28;20057;-69
2022/01/07 03:00:11;;;;;;;6.30;1.77;;;8.60;79.70;;;;;;5034601;28;20557;-67
2022/01/07 03:02:37;;;;;;;8.27;2.05;;;8.60;79.40;;;;;;5034275;28;20094;-64
2022/01/07 03:05:03;;;;;;;4.82;1.95;;;8.60;79.90;;;;;;5034189;28;20108;-67
2022/01/07 03:07:29;;;;;;;5.03;1.80;;;8.60;80.00;;;;;;5033930;28;20497;-66
2022/01/07 03:09:56;;;;;;;5.95;1.85;;;8.50;79.80;;;;;;5033904;28;20021;-66
2022/01/07 03:12:21;;;;;;;6.05;1.70;;;8.60;80.10;;;;;;5034077;28;20029;-68
2022/01/07 03:14:49;;;;;;;5.82;2.03;;;8.60;80.00;;;;;;5034305;28;20036;-65
2022/01/07 03:17:15;;;;;;;3.80;1.60;;;8.60;80.00;;;;;;5034660;28;20021;-66
2022/01/07 03:19:41;;;;;;;7.70;2.22;;;8.60;80.50;;;;;;5034613;28;20029;-66
2022/01/07 03:22:06;;;;;;;6.30;1.70;;;8.60;80.10;;;;;;5033564;28;20029;-73
2022/01/07 03:24:32;;;;;;;5.90;1.92;;;8.60;80.10;;;;;;5033824;28;20050;-69
2022/01/07 03:26:58;;;;;;;4.30;1.70;;;8.50;80.00;;;;;;5033885;28;20091;-69
2022/01/07 03:29:23;;;;;;;5.65;1.42;;;8.50;80.50;;;;;;5033577;28;20364;-67
2022/01/07 03:31:49;;;;;;;6.93;1.85;;;8.50;80.30;;;;;;5033611;28;20112;-71
2022/01/07 03:34:15;;;;;;;5.53;1.70;;;8.50;80.40;;;;;;5033577;28;20028;-73
2022/01/07 03:36:40;;;;;;;4.70;1.42;;;8.50;80.80;;;;;;5033652;28;20025;-70
2022/01/07 03:39:07;;;;;;;3.88;1.77;;;8.40;80.60;;;;;;5033439;28;20382;-73
2022/01/07 03:41:33;;;;;;;4.90;1.90;;;8.40;80.90;;;;;;5033689;28;20331;-72
2022/01/07 03:43:59;;;;;;;3.75;1.60;;;8.40;80.90;;;;;;5033405;28;20103;-67
2022/01/07 03:46:25;;;;;;;3.40;1.58;;;8.40;81.20;;;;;;5033275;28;20079;-70
2022/01/07 03:48:51;;;;;;;6.05;2.10;;;8.40;81.10;;;;;;5033242;28;20368;-72
2022/01/07 03:51:17;;;;;;;4.78;1.83;;;8.50;81.00;;;;;;5033240;28;20364;-74
2022/01/07 03:53:42;;;;;;;3.42;1.67;;;8.40;80.90;;;;;;5031969;28;20083;-75
2022/01/07 03:56:11;;;;;;;5.30;1.70;;;8.40;81.10;;;;;;5033152;28;20100;-69
2022/01/07 03:58:37;;;;;;;3.88;1.83;;;8.40;81.80;;;;;;5033229;28;20030;-71
2022/01/07 04:01:05;;;;;;;6.13;2.03;;;8.30;81.10;;;;;;5033098;28;20103;-65
2022/01/07 04:03:30;;;;;;;4.90;2.30;;;8.30;80.60;;;;;;5033046;28;20075;-76
2022/01/07 04:05:56;;;;;;;3.65;1.60;;;8.30;81.50;;;;;;5033298;28;20053;-72
2022/01/07 04:08:22;;;;;;;5.25;1.80;;;8.30;81.90;;;;;;5033276;28;20108;-67
2022/01/07 04:10:47;;;;;;;3.20;1.52;;;8.30;81.60;;;;;;5033089;28;20060;-67
2022/01/07 04:13:13;;;;;;;4.35;1.65;;;8.30;81.60;;;;;;5033205;28;20053;-65
2022/01/07 04:15:39;;;;;;;3.15;1.40;;;8.30;81.70;;;;;;5033024;28;20475;-71
2022/01/07 04:18:05;;;;;;;4.88;1.80;;;8.30;81.50;;;;;;5033101;28;20077;-76
2022/01/07 04:20:33;;;;;;;6.18;1.70;;;8.30;81.10;;;;;;5033146;28;20029;-72
2022/01/07 04:23:00;;;;;;;4.63;1.85;;;8.30;81.50;;;;;;5033109;28;20084;-69
2022/01/07 04:25:26;;;;;;;5.78;2.00;;;8.30;81.90;;;;;;5032659;28;20542;-67
2022/01/07 04:28:05;;;;;;;3.95;1.70;;;8.20;81.70;;;;;;5032557;28;20022;-68
2022/01/07 04:30:34;;;;;;;6.72;2.00;;;8.30;82.20;;;;;;5032888;28;20100;-71
2022/01/07 04:33:02;;;;;;;4.28;1.90;;;8.30;82.20;;;;;;5032815;28;20060;-66
2022/01/07 04:35:28;;;;;;;4.38;1.80;;;8.20;82.30;;;;;;5031513;28;20482;-69
2022/01/07 04:37:54;;;;;;;7.07;2.00;;;8.20;82.40;;;;;;5032775;28;20106;-68
2022/01/07 04:40:21;;;;;;;5.18;1.70;;;8.20;82.70;;;;;;5031545;28;20057;-66
2022/01/07 04:42:47;;;;;;;4.43;1.85;;;8.20;82.60;;;;;;5032726;28;20037;-68
2022/01/07 04:45:13;;;;;;;4.38;1.80;;;8.20;82.50;;;;;;5032748;28;20029;-72
2022/01/07 04:47:40;;;;;;;3.75;1.83;;;8.20;82.70;;;;;;5032525;28;20033;-71
2022/01/07 04:50:12;;;;;;;5.75;2.10;;;8.20;82.80;;;;;;5032692;28;20090;-69
2022/01/07 04:52:44;;;;;;;3.30;1.50;;;8.20;82.60;;;;;;5032355;28;20356;-69
2022/01/07 04:55:11;;;;;;;4.53;1.80;;;8.20;82.30;;;;;;5032617;28;20151;-74
2022/01/07 04:57:37;;;;;;;5.68;1.85;;;8.30;82.70;;;;;;5032303;28;20040;-66
2022/01/07 05:00:04;;;;;;;5.00;2.10;;;8.30;82.50;;;;;;5031215;28;20116;-70
2022/01/07 05:02:30;;;;;;;8.27;2.20;;;8.30;82.50;;;;;;5032341;28;20135;-71
2022/01/07 05:04:56;;;;;;;4.35;2.08;;;8.30;82.70;;;;;;5032544;28;20360;-69
2022/01/07 05:07:21;;;;;;;7.40;2.17;;;8.20;82.40;;;;;;5032559;28;20014;-71
2022/01/07 05:09:47;;;;;;;5.35;2.25;;;8.20;82.70;;;;;;5032699;28;20025;-74
2022/01/07 05:12:13;;;;;;;5.80;1.90;;;8.20;83.00;;;;;;5032478;28;20044;-65
2022/01/07 05:14:39;;;;;;;4.88;1.98;;;8.20;82.70;;;;;;5032524;28;20374;-67
2022/01/07 05:17:04;;;;;;;5.45;2.10;;;8.20;82.80;;;;;;5032472;28;20037;-65
2022/01/07 05:19:30;;;;;;;6.70;2.28;;;8.20;82.70;;;;;;5032460;28;20410;-71
2022/01/07 05:21:56;;;;;;;7.80;2.28;;;8.10;83.10;;;;;;5032456;28;20022;-67
2022/01/07 05:24:22;;;;;;;6.00;1.85;;;8.10;83.80;;;;;;5032391;28;20420;-70
2022/01/07 05:26:47;;;;;;;5.32;1.90;;;8.10;83.10;;;;;;5032997;28;20098;-75
2022/01/07 05:29:13;;;;;;;11.10;3.13;;;8.10;83.10;;;;;;5032540;28;20152;-71
2022/01/07 05:31:39;;;;;;;4.78;1.98;;;8.10;83.10;;;;;;5032556;28;20049;-68
2022/01/07 05:34:04;;;;;;;6.97;2.40;;;8.10;83.80;;;;;;5032383;28;20025;-67
2022/01/07 05:36:30;;;;;;;10.68;2.67;;;8.10;83.80;;;;;;5032237;28;20033;-68
2022/01/07 05:38:56;;;;;;;5.45;2.45;;;8.00;83.60;;;;;;5034325;28;20036;-68
2022/01/07 05:41:22;;;;;;;6.70;2.90;;;8.00;83.80;;;;;;5035721;28;20032;-66
2022/01/07 05:43:48;;;;;;;7.72;3.25;;;8.00;83.70;;;;;;5035606;28;20029;-71
2022/01/07 05:46:15;;;;;;;7.18;3.00;;;8.00;83.80;;;;;;5035679;28;20029;-62
2022/01/07 05:48:46;;;;;;;8.98;3.33;;;8.10;84.00;;;;;;5034321;28;20028;-68
2022/01/07 05:51:13;;;;;;;10.45;3.28;;;8.10;84.40;;;;;;5035731;28;20076;-64
2022/01/07 05:53:39;;;;;;;7.30;3.67;;;8.20;84.30;;;;;;5035586;28;20029;-65
2022/01/07 05:56:06;;;;;;;8.07;3.25;;;8.20;84.20;;;;;;5035485;28;20049;-64
2022/01/07 05:58:33;;;;;;;8.43;3.50;;;8.20;84.00;;;;;;5035208;28;20385;-67
2022/01/07 06:00:58;;;;;;;8.77;3.42;;;8.20;84.10;;;;;;5035179;28;20151;-66
2022/01/07 06:03:24;;;;;;;9.07;3.60;;;8.30;84.20;;;;;;5035381;28;20510;-64
2022/01/07 06:05:50;;;;;;;11.90;3.65;;;8.30;84.00;;;;;;5035587;28;20479;-66
2022/01/07 06:08:17;;;;;;;10.20;4.03;;;8.30;83.90;;;;;;5035375;28;20026;-63
2022/01/07 06:10:43;;;;;;;11.07;3.58;;;8.30;83.20;;;;;;5036310;28;20057;-69
2022/01/07 06:13:09;;;;;;;11.63;3.88;;;8.30;83.60;;;;;;5036127;28;20466;-67
2022/01/07 06:15:35;;;;;;;12.23;3.78;;;8.30;83.90;;;;;;5035848;28;20486;-68
2022/01/07 06:18:04;;;;;;;8.25;3.45;;;8.30;84.10;;;;;;5035735;28;20041;-72
2022/01/07 06:20:30;;;;;;;9.02;3.10;;;8.20;84.00;;;;;;5035247;28;20427;-72
2022/01/07 06:22:56;;;;;;;7.93;3.17;;;8.30;84.20;;;;;;5035004;28;20029;-72
2022/01/07 06:25:22;;;;;;;6.53;2.80;;;8.20;83.70;;;;;;5035073;28;20386;-69
2022/01/07 06:27:48;;;;;;;8.30;2.70;;;8.20;84.20;;;;;;5034813;28;20033;-74
2022/01/07 06:30:13;;;;;;;7.70;2.45;;;8.20;84.10;;;;;;5034938;28;20028;-72
2022/01/07 06:32:39;;;;;;;10.40;2.80;;;8.10;84.10;;;;;;5034877;28;20100;-69
2022/01/07 06:35:05;;;;;;;7.32;3.20;;;8.10;84.30;;;;;;5034867;28;20096;-73
2022/01/07 06:37:31;;;;;;;9.40;2.80;;;8.00;84.00;;;;;;5034816;28;20108;-68
2022/01/07 06:39:58;;;;;;;10.75;3.45;;;8.00;84.50;;;;;;5034959;28;20458;-65
2022/01/07 06:42:24;;;;;;;7.38;2.95;;;8.00;84.80;;;;;;5034824;28;20033;-73
2022/01/07 06:44:50;;;;;;;8.43;2.90;;;7.90;84.70;;;;;;5034978;28;20048;-65
2022/01/07 06:47:15;;;;;;;5.32;2.70;;;7.90;84.70;;;;;;5033711;28;20029;-65
2022/01/07 06:49:41;;;;;;;7.10;2.72;;;7.90;85.10;;;;;;5034452;28;20025;-72
2022/01/07 06:52:07;;;;;;;7.63;2.90;;;7.90;84.70;;;;;;5035587;28;20501;-73
2022/01/07 06:54:33;;;;;;;7.20;3.08;;;7.90;85.10;;;;;;5035275;28;20036;-70
2022/01/07 06:57:00;;;;;;;7.05;3.08;;;7.90;85.40;;;;;;5034551;28;20037;-69
2022/01/07 06:59:25;;;;;;;7.60;3.15;;;7.90;84.70;;;;;;5034475;28;20032;-69
2022/01/07 07:01:52;;;;;;;7.13;2.50;;;7.90;85.10;;;;;;5034171;28;20166;-68
2022/01/07 07:04:18;;;;;;;6.88;3.10;;;8.00;85.60;;;;;;5034482;28;20535;-64
2022/01/07 07:06:44;;;;;;;8.27;2.92;;;8.00;85.10;;;;;;5034323;28;20033;-69
2022/01/07 07:09:10;;;;;;;8.85;2.40;;;8.10;84.90;;;;;;5034338;28;20026;-68
2022/01/07 07:11:36;;;;;;;10.55;2.28;;;8.10;85.00;;;;;;5034360;28;20309;-71
2022/01/07 07:14:02;;;;;;;6.00;2.47;;;8.10;84.70;;;;;;5034188;28;20032;-70
2022/01/07 07:16:27;;;;;;;9.30;2.55;;;8.00;84.70;;;;;;5034010;28;20064;-67
2022/01/07 07:18:53;;;;;;;12.10;2.60;;;8.00;84.90;;;;;;5033883;28;20079;-67
2022/01/07 07:21:19;;;;;;;8.07;3.30;;;8.10;84.80;;;;;;5033577;28;20064;-65
2022/01/07 07:23:45;;;;;;;6.40;2.80;;;8.10;84.90;;;;;;5033463;28;20033;-66
2022/01/07 07:26:10;;;;;;;8.25;2.47;;;8.10;85.00;;;;;;5033225;28;20025;-63
2022/01/07 07:28:38;;;;;;;5.15;2.33;;;8.20;84.90;;;;;;5033416;28;20030;-62
2022/01/07 07:31:07;;;;;;;11.52;3.33;;;8.10;84.40;;;;;;5033292;28;20071;-69
2022/01/07 07:33:55;;;;;;;5.53;2.30;;;8.20;85.00;;;;;;5033402;28;20056;-63
2022/01/07 07:36:27;;;;;;;7.07;2.45;;;8.30;84.70;;;;;;5033316;28;20030;-66
2022/01/07 07:38:56;;;;;;;5.93;2.65;;;8.20;84.50;;;;;;5033495;28;20095;-69
2022/01/07 07:41:22;;;;;;;6.72;2.28;;;8.30;84.60;;;;;;5033406;28;20022;-65
2022/01/07 07:43:49;;;;;;;9.20;2.72;;;8.40;84.40;;;;;;5033516;28;20368;-67
2022/01/07 07:46:16;;;;;;;6.63;2.35;;;8.50;84.70;;;;;;5033745;28;20200;-63
2022/01/07 07:48:42;;;;;;;5.80;2.47;;;8.60;84.40;;;;;;5032800;28;20021;-64
2022/01/07 07:51:08;;;;;;;8.10;2.55;;;8.60;83.80;;;;;;5032909;28;20372;-63
2022/01/07 07:53:34;;;;;;;11.25;2.55;;;8.60;83.70;;;;;;5032979;28;20505;-64
2022/01/07 07:55:59;;;;;;;8.35;2.30;;;8.70;83.60;;;;;;5033035;28;20029;-61
2022/01/07 07:58:27;;;;;;;7.00;2.53;;;8.70;82.80;;;;;;5032958;28;20036;-62
2022/01/07 08:00:53;;;;;;;6.35;2.30;;;8.70;83.50;;;;;;5033241;28;20043;-74
2022/01/07 08:03:21;;;;;;;5.50;2.55;;;8.70;83.50;;;;;;5043912;28;20558;-62
2022/01/07 08:05:47;;;;;;;9.32;2.90;;;8.60;83.30;;;;;;5044157;28;20114;-62
2022/01/07 08:08:13;;;;;;;7.13;2.90;;;8.70;83.40;;;;;;5038076;28;20061;-63
2022/01/07 08:10:45;;;;;;;8.35;2.90;;;8.80;83.30;;;;;;5048700;28;20500;-62
2022/01/07 08:18:24;;;;;;;7.32;2.53;;;8.90;83.10;;;;;;5051954;28;20099;-63
2022/01/07 08:20:55;;;;;;;10.48;2.70;;;8.90;82.70;;;;;;5050840;28;20405;-63
2022/01/07 08:23:21;;;;;;;8.48;3.00;;;9.00;83.00;;;;;;5033534;28;20487;-68
2022/01/07 08:25:47;;;;;;;6.00;2.50;;;9.00;82.30;;;;;;5032839;28;20029;-67
2022/01/07 08:28:13;;;;;;;8.73;2.38;;;9.00;82.20;;;;;;5032791;28;20083;-66
2022/01/07 08:36:30;;;;;;;8.05;2.45;;;9.00;81.70;;;;;;5032986;28;20032;-67
2022/01/07 08:38:57;;;;;;;7.32;2.67;;;9.10;80.60;;;;;;5032492;28;20104;-64
2022/01/07 08:41:27;;;;;;;7.20;2.67;;;9.10;81.90;;;;;;5031300;28;20029;-64
2022/01/07 08:43:53;;;;;;;10.75;2.72;;;9.10;81.30;;;;;;5032330;28;20040;-65
2022/01/07 08:46:19;;;;;;;9.50;2.55;;;9.20;81.20;;;;;;5032508;28;20029;-63
2022/01/07 08:48:45;;;;;;;5.15;2.45;;;9.30;80.90;;;;;;5032607;28;20033;-65
2022/01/07 08:51:11;;;;;;;6.90;2.53;;;9.40;80.90;;;;;;5032639;28;20151;-64
2022/01/07 08:53:37;;;;;;;13.30;3.22;;;9.50;80.60;;;;;;5032283;28;20064;-66
2022/01/07 08:56:04;;;;;;;8.43;2.90;;;9.60;80.20;;;;;;5014629;28;20022;-64
2022/01/07 08:58:30;;;;;;;10.73;2.95;;;9.60;79.90;;;;;;5032445;28;20101;-68
2022/01/07 09:00:56;;;;;;;5.93;2.50;;;9.70;79.70;;;;;;5032377;28;20044;-66
2022/01/07 09:03:23;;;;;;;6.10;2.10;;;9.80;79.40;;;;;;5032651;28;20042;-65
2022/01/07 09:05:48;;;;;;;10.13;2.90;;;9.80;79.20;;;;;;5032264;28;20109;-67
2022/01/07 09:08:14;;;;;;;9.57;2.95;;;9.80;78.60;;;;;;5032334;28;20108;-64
2022/01/07 09:10:41;;;;;;;8.82;2.55;;;9.90;78.40;;;;;;5038739;28;20356;-65
2022/01/07 09:13:08;;;;;;;6.10;2.38;;;10.00;77.00;;;;;;5034524;28;20037;-65
2022/01/07 09:15:34;;;;;;;8.80;2.60;;;10.00;76.70;;;;;;5034392;28;20374;-65
2022/01/07 09:18:00;;;;;;;5.53;1.95;;;10.10;76.10;;;;;;5043842;28;20032;-66
2022/01/07 09:20:27;;;;;;;7.57;2.92;;;10.20;75.80;;;;;;5045850;28;20028;-66
2022/01/07 09:22:53;;;;;;;8.63;3.00;;;10.30;75.50;;;;;;5046919;28;20414;-69
2022/01/07 09:25:19;;;;;;;8.80;2.88;;;10.30;74.90;;;;;;5056506;28;20307;-64
2022/01/07 09:27:45;;;;;;;7.10;2.17;;;10.40;74.90;;;;;;5049647;28;20052;-67
2022/01/07 09:30:11;;;;;;;7.53;2.95;;;10.50;74.50;;;;;;5043887;28;20474;-64
2022/01/07 09:32:38;;;;;;;8.55;2.70;;;10.60;74.60;;;;;;5046940;28;20053;-64
2022/01/07 09:35:05;;;;;;;9.20;3.10;;;10.60;74.40;;;;;;5053479;28;20112;-65
2022/01/07 09:37:32;;;;;;;6.30;2.47;;;10.70;74.10;;;;;;5055318;28;20029;-64
2022/01/07 09:40:02;;;;;;;7.93;3.13;;;10.80;74.00;;;;;;5043932;28;20056;-66
2022/01/07 09:42:28;;;;;;;12.13;2.75;;;10.90;74.90;;;;;;5045981;28;20040;-65
2022/01/07 09:44:54;;;;;;;6.07;2.38;;;10.90;73.60;;;;;;5045851;28;20056;-67
2022/01/07 09:47:19;;;;;;;7.63;2.35;;;11.00;73.40;;;;;;5051316;28;20025;-64
2022/01/07 09:49:45;;;;;;;7.97;2.30;;;11.00;73.90;;;;;;5054987;28;20025;-64
2022/01/07 09:52:11;;;;;;;11.15;2.45;;;11.10;72.80;;;;;;5055352;28;20025;-65
2022/01/07 09:54:39;;;;;;;6.28;2.00;;;11.20;72.50;;;;;;5054136;28;20060;-72
2022/01/07 09:57:07;;;;;;;5.38;2.20;;;11.20;72.30;;;;;;5046251;28;20028;-65
2022/01/07 09:59:36;;;;;;;8.18;3.03;;;11.20;72.40;;;;;;5045466;28;20045;-64
2022/01/07 10:02:07;;;;;;;9.60;2.25;;;11.30;72.40;;;;;;5037386;28;20045;-68
2022/01/07 10:04:37;;;;;;;5.70;2.20;;;11.40;72.00;;;;;;5055398;28;20458;-67
2022/01/07 10:07:20;;;;;;;6.78;1.88;;;11.40;71.50;;;;;;5042613;28;20080;-70
2022/01/07 10:10:08;;;;;;;9.43;2.17;;;11.50;70.90;;;;;;5047386;28;20429;-66
2022/01/07 10:12:52;;;;;;;8.55;2.22;;;11.60;70.60;;;;;;5037472;28;20149;-70
2022/01/07 10:15:17;;;;;;;;;;;11.70;70.30;;;;;;5038848;28;20087;-66
2022/01/07 10:18:20;;;;;;;6.80;2.75;;;11.80;69.30;;;;;;5040102;28;19909;-67
2022/01/07 10:20:47;;;;;;;6.07;2.00;;;11.90;69.60;;;;;;5035920;28;20026;-67
2022/01/07 10:23:17;;;;;;;3.95;1.75;;;12.00;69.90;;;;;;5045735;28;20085;-74
2022/01/07 10:25:47;;;;;;;6.75;2.13;;;12.00;69.40;;;;;;5033764;28;20022;-68
2022/01/07 10:28:18;;;;;;;7.15;1.75;;;12.00;69.30;;;;;;5034059;28;20030;-70
2022/01/07 10:30:46;;;;;;;9.55;2.03;;;12.10;69.00;;;;;;5034547;28;20037;-66
2022/01/07 10:33:21;;;;;;;6.68;2.38;;;12.20;69.00;;;;;;5034768;28;20443;-66
2022/01/07 10:35:54;;;;;;;6.18;2.15;;;12.30;69.20;;;;;;5032673;28;20048;-65
2022/01/07 10:38:23;;;;;;;3.63;1.90;;;12.40;68.60;;;;;;5036951;28;20428;-67
2022/01/07 10:40:50;;;;;;;5.30;2.15;;;12.50;68.30;;;;;;5051870;28;20025;-68
2022/01/07 10:43:22;;;;;;;4.68;1.55;;;12.50;67.90;;;;;;5045752;28;20045;-66
2022/01/07 10:45:55;;;;;;;4.20;1.50;;;12.60;67.30;;;;;;5053993;28;20339;-68
2022/01/07 10:48:34;;;;;;;4.35;1.95;;;12.70;66.70;;;;;;5054560;28;20032;-65
2022/01/07 10:51:12;;;;;;;3.97;1.63;;;12.80;66.20;;;;;;5052863;28;20437;-66
2022/01/07 10:53:38;;;;;;;8.50;2.10;;;12.80;65.40;;;;;;5051107;28;20359;-65
2022/01/07 10:56:05;;;;;;;4.40;1.70;;;12.90;64.90;;;;;;5053895;28;20158;-66
2022/01/07 10:58:56;;;;;;;5.32;1.65;;;12.90;64.90;;;;;;5053268;28;20104;-66
2022/01/07 11:01:22;;;;;;;4.20;1.60;;;13.00;64.90;;;;;;5050887;28;20056;-67
2022/01/07 11:03:53;;;;;;;5.22;1.83;;;13.00;63.50;;;;;;5049654;28;20041;-66
2022/01/07 11:06:20;;;;;;;7.30;2.28;;;13.00;63.30;;;;;;5053511;28;20086;-65
2022/01/07 11:08:51;;;;;;;5.28;1.92;;;13.10;62.90;;;;;;5053835;28;20084;-68
2022/01/07 11:11:19;;;;;;;5.65;1.88;;;13.10;62.80;;;;;;5051395;28;20029;-67
2022/01/07 11:13:45;;;;;;;3.55;1.60;;;13.10;62.60;;;;;;5051174;28;20163;-67
2022/01/07 11:16:11;;;;;;;6.07;1.80;;;13.20;62.10;;;;;;5053826;28;20460;-67
2022/01/07 11:18:39;;;;;;;6.18;2.10;;;13.30;61.30;;;;;;5053527;28;20029;-65
2022/01/07 11:21:06;;;;;;;5.05;2.50;;;13.30;61.10;;;;;;5052025;28;20021;-66
2022/01/07 11:23:33;;;;;;;10.23;2.30;;;13.40;61.60;;;;;;5049397;28;20041;-70
2022/01/07 11:26:01;;;;;;;7.10;2.15;;;13.50;61.80;;;;;;5053172;28;20025;-66
2022/01/07 11:28:28;;;;;;;5.32;1.80;;;13.60;60.90;;;;;;5047915;28;20107;-68
2022/01/07 11:31:14;;;;;;;7.35;1.70;;;13.70;60.30;;;;;;5051249;28;20031;-67
2022/01/07 11:33:40;;;;;;;5.82;1.88;;;13.80;60.80;;;;;;5050473;28;20124;-67
2022/01/07 11:36:38;;;;;;;5.72;1.92;;;13.80;59.80;;;;;;5050018;28;20033;-67
2022/01/07 11:39:05;;;;;;;8.15;1.88;;;13.90;59.70;;;;;;5049683;28;20021;-68
2022/01/07 11:41:56;;;;;;;6.95;2.08;;;13.90;59.40;;;;;;5050584;28;20521;-66
2022/01/07 11:44:27;;;;;;;4.82;1.65;;;13.90;60.00;;;;;;5052714;28;20029;-68
2022/01/07 11:47:17;;;;;;;5.10;1.80;;;13.90;59.40;;;;;;5053601;28;20390;-68
2022/01/07 11:49:42;;;;;;;7.93;3.65;;;14.00;59.70;;;;;;5047625;28;20029;-67
2022/01/07 11:55:26;;;;;;;6.07;1.80;;;14.10;59.10;;;;;;5008997;28;20050;-70
2022/01/07 11:58:01;;;;;;;6.20;1.88;;;14.10;58.40;;;;;;4993112;28;20403;-70
2022/01/07 12:00:59;;;;;;;11.13;2.22;;;14.20;57.90;;;;;;4996133;28;20026;-67
2022/01/07 12:03:39;;;;;;;7.10;2.42;;;14.20;58.40;;;;;;5007126;28;20041;-66
2022/01/07 12:06:19;;;;;;;9.25;2.53;;;14.20;58.20;;;;;;5011850;28;20045;-67
2022/01/07 12:09:03;;;;;;;6.72;2.05;;;14.30;58.00;;;;;;5012336;28;20057;-66
2022/01/07 12:11:35;;;;;;;4.80;1.77;;;14.30;58.30;;;;;;5010128;28;20033;-66
2022/01/07 12:14:14;;;;;;;5.57;1.95;;;14.40;58.10;;;;;;5009754;28;20177;-65
2022/01/07 12:16:45;;;;;;;7.43;2.45;;;14.50;58.20;;;;;;5008599;28;20042;-69
2022/01/07 12:19:20;;;;;;;6.13;2.08;;;14.50;58.00;;;;;;5007771;28;20455;-67
2022/01/07 12:21:48;;;;;;;5.20;2.22;;;14.60;57.90;;;;;;4995724;28;20112;-67
2022/01/07 12:24:16;;;;;;;5.68;1.95;;;14.70;57.60;;;;;;5009993;28;20038;-66
2022/01/07 12:26:42;;;;;;;4.80;1.55;;;14.70;57.10;;;;;;5012335;28;20026;-69
2022/01/07 12:29:20;;;;;;;4.85;1.92;;;14.70;56.90;;;;;;5012701;28;20030;-71
2022/01/07 12:31:54;;;;;;;7.57;1.92;;;14.70;56.70;;;;;;5009562;28;20557;-69
2022/01/07 12:34:26;;;;;;;;;;;14.70;55.90;;;;;;5012150;28;20042;-67
2022/01/07 12:36:58;;;;;;;3.95;1.90;;;14.70;54.10;;;;;;5012198;28;19906;-70
2022/01/07 12:39:28;;;;;;;5.40;1.65;;;14.80;56.00;;;;;;5012304;28;20045;-67
2022/01/07 12:41:55;;;;;;;6.55;2.20;;;14.80;55.70;;;;;;5008388;28;20026;-67
2022/01/07 12:44:22;;;;;;;5.32;1.85;;;14.80;56.20;;;;;;5009871;28;20139;-66
2022/01/07 12:46:56;;;;;;;5.18;2.00;;;14.80;55.60;;;;;;5011535;28;20184;-65
2022/01/07 12:49:36;;;;;;;6.38;2.40;;;14.90;55.90;;;;;;5016230;28;20026;-65
2022/01/07 12:52:04;;;;;;;5.55;1.73;;;14.90;55.50;;;;;;5011702;28;20116;-66
2022/01/07 12:54:31;;;;;;;4.57;1.90;;;14.90;55.00;;;;;;5014942;28;20120;-69
2022/01/07 12:56:56;;;;;;;5.40;2.03;;;14.90;55.20;;;;;;5016350;28;20034;-72
2022/01/07 12:59:25;;;;;;;5.38;2.17;;;14.90;55.20;;;;;;5016279;28;20058;-70
2022/01/07 13:01:51;;;;;;;6.70;2.63;;;14.90;55.50;;;;;;5009279;28;20049;-71
2022/01/07 13:04:22;;;;;;;9.55;2.92;;;14.80;55.00;;;;;;5014107;28;20573;-68
2022/01/07 13:06:54;;;;;;;8.23;2.22;;;14.90;55.10;;;;;;5014932;28;20463;-69
2022/01/07 13:09:25;;;;;;;4.15;1.70;;;15.00;54.90;;;;;;5015542;28;20033;-68
2022/01/07 13:11:54;;;;;;;10.13;2.70;;;15.10;54.30;;;;;;5011929;28;20061;-71